Time;durP1;ratioP1;P1;durP2;ratioP2;P2;SDS_P1;SDS_P2;PMS_P1;PMS_P2;Temp;Humidity;BMP_temperature;BMP_pressure;BME280_temperature;BME280_humidity;BME280_pressure;Samples;Min_cycle;Max_cycle;Signal;HPM_P1;HPM_P2
2021/01/12 00:02:17;;;;;;;25.97;17.97;;;-2.50;93.10;;;;;;5139068;27;20496;-45
2021/01/12 00:04:43;;;;;;;27.97;18.00;;;-2.50;93.10;;;;;;5138431;27;20436;-45
2021/01/12 00:07:10;;;;;;;26.73;18.77;;;-2.40;92.90;;;;;;5138361;27;20416;-45
2021/01/12 00:09:35;;;;;;;29.30;17.80;;;-2.40;92.90;;;;;;5138397;27;20420;-45
2021/01/12 00:12:02;;;;;;;27.03;19.03;;;-2.30;92.90;;;;;;5139031;27;20743;-44
2021/01/12 00:14:31;;;;;;;29.70;19.70;;;-2.40;92.90;;;;;;5137655;27;20471;-44
2021/01/12 00:17:04;;;;;;;25.47;18.37;;;-2.40;92.80;;;;;;5137602;27;20460;-44
2021/01/12 00:19:30;;;;;;;27.63;18.97;;;-2.40;92.90;;;;;;5138487;27;20472;-44
2021/01/12 00:21:57;;;;;;;29.60;18.73;;;-2.40;93.00;;;;;;5138391;27;20420;-44
2021/01/12 00:24:23;;;;;;;28.83;19.87;;;-2.30;92.90;;;;;;5137171;27;20405;-45
2021/01/12 00:26:49;;;;;;;27.87;18.33;;;-2.20;92.70;;;;;;5135876;27;20444;-44
2021/01/12 00:29:15;;;;;;;30.03;19.73;;;-2.20;92.70;;;;;;5137408;27;20431;-45
2021/01/12 00:31:44;;;;;;;24.87;17.67;;;-2.30;92.90;;;;;;5138028;27;20425;-45
2021/01/12 00:34:10;;;;;;;30.20;17.80;;;-2.20;92.80;;;;;;5138043;27;20918;-44
2021/01/12 00:36:40;;;;;;;26.97;17.70;;;-2.30;92.70;;;;;;5137428;28;20535;-42
2021/01/12 00:39:07;;;;;;;25.87;18.00;;;-2.20;92.80;;;;;;5137483;27;20800;-45
2021/01/12 00:41:33;;;;;;;27.50;17.80;;;-2.20;92.80;;;;;;5136640;27;20432;-44
2021/01/12 00:43:59;;;;;;;28.97;18.30;;;-2.10;92.80;;;;;;5136318;27;20492;-44
2021/01/12 00:46:25;;;;;;;26.33;17.43;;;-2.10;92.70;;;;;;5136478;27;20519;-44
2021/01/12 00:48:50;;;;;;;28.77;18.50;;;-2.20;92.70;;;;;;5136038;28;20580;-45
2021/01/12 00:51:16;;;;;;;27.03;17.73;;;-2.20;92.70;;;;;;5136345;28;20256;-45
2021/01/12 00:53:42;;;;;;;28.17;17.40;;;-2.10;92.80;;;;;;5135940;28;20193;-44
2021/01/12 00:56:15;;;;;;;30.87;18.73;;;-2.10;92.80;;;;;;5137273;27;20191;-45
2021/01/12 00:58:40;;;;;;;26.63;17.43;;;-2.10;92.80;;;;;;5137871;28;20464;-44
2021/01/12 01:01:06;;;;;;;25.00;17.83;;;-2.10;92.70;;;;;;5138498;28;20432;-45
2021/01/12 01:03:32;;;;;;;25.43;17.03;;;-2.10;92.80;;;;;;5138118;28;20179;-44
2021/01/12 01:05:58;;;;;;;30.00;18.27;;;-2.00;92.70;;;;;;5138311;27;20447;-44
2021/01/12 01:08:24;;;;;;;26.70;17.17;;;-2.00;92.60;;;;;;5138210;27;20187;-44
2021/01/12 01:10:50;;;;;;;24.17;17.57;;;-2.00;92.70;;;;;;5137601;27;20195;-44
2021/01/12 01:13:16;;;;;;;23.27;17.67;;;-2.00;92.80;;;;;;5137300;27;20713;-44
2021/01/12 01:15:41;;;;;;;24.87;16.27;;;-2.00;92.80;;;;;;5137751;27;20195;-45
2021/01/12 01:18:07;;;;;;;20.63;14.57;;;-2.00;93.00;;;;;;5138194;28;20234;-45
2021/01/12 01:20:33;;;;;;;24.00;16.33;;;-1.90;93.10;;;;;;5138163;28;20252;-45
2021/01/12 01:22:58;;;;;;;24.37;14.90;;;-1.90;93.30;;;;;;5138456;28;20248;-45
2021/01/12 01:25:24;;;;;;;25.20;15.43;;;-1.80;93.30;;;;;;5137756;28;20258;-45
2021/01/12 01:27:50;;;;;;;24.73;14.50;;;-1.80;93.20;;;;;;5137575;28;20180;-45
2021/01/12 01:30:16;;;;;;;21.53;12.97;;;-1.60;93.10;;;;;;5138063;28;20267;-45
2021/01/12 01:32:41;;;;;;;22.03;14.80;;;-1.60;92.90;;;;;;5136980;28;20222;-45
2021/01/12 01:35:08;;;;;;;22.20;14.27;;;-1.60;92.80;;;;;;5137184;28;20858;-44
2021/01/12 01:37:37;;;;;;;25.50;15.50;;;-1.60;92.70;;;;;;5137931;27;20191;-44
2021/01/12 01:40:05;;;;;;;24.77;14.07;;;-1.60;92.80;;;;;;5139964;27;20472;-44
2021/01/12 01:42:31;;;;;;;22.53;15.13;;;-1.60;92.90;;;;;;5142029;27;20492;-45
2021/01/12 01:44:57;;;;;;;20.83;14.00;;;-1.70;93.10;;;;;;5141855;27;20424;-45
2021/01/12 01:47:24;;;;;;;24.63;16.70;;;-1.80;93.20;;;;;;5140347;27;20187;-45
2021/01/12 01:49:50;;;;;;;23.37;14.83;;;-1.70;93.40;;;;;;5141396;27;20532;-44
2021/01/12 01:52:16;;;;;;;19.97;14.27;;;-1.70;93.40;;;;;;5140867;27;20439;-44
2021/01/12 01:54:41;;;;;;;20.20;13.47;;;-1.70;93.50;;;;;;5141663;27;20440;-45
2021/01/12 01:57:07;;;;;;;22.37;13.60;;;-1.70;93.50;;;;;;5140806;27;20183;-44
2021/01/12 01:59:33;;;;;;;21.43;13.30;;;-1.60;93.60;;;;;;5140209;27;20207;-43
2021/01/12 02:01:59;;;;;;;18.20;12.80;;;-1.60;93.60;;;;;;5140598;27;20187;-45
2021/01/12 02:04:31;;;;;;;18.80;12.97;;;-1.50;93.50;;;;;;5139968;27;20741;-45
2021/01/12 02:06:59;;;;;;;20.83;13.70;;;-1.40;93.30;;;;;;5140548;27;20194;-45
2021/01/12 02:09:38;;;;;;;24.00;14.30;;;-1.50;93.10;;;;;;5141094;27;20417;-45
2021/01/12 02:12:09;;;;;;;19.70;13.10;;;-1.50;93.20;;;;;;5140137;27;20412;-44
2021/01/12 02:14:38;;;;;;;19.73;12.90;;;-1.50;93.20;;;;;;5140951;27;20413;-45
2021/01/12 02:17:05;;;;;;;19.43;12.17;;;-1.50;93.20;;;;;;5141080;27;20705;-44
2021/01/12 02:19:31;;;;;;;19.17;12.17;;;-1.50;93.40;;;;;;5140751;27;20461;-44
2021/01/12 02:22:02;;;;;;;18.73;13.10;;;-1.50;93.40;;;;;;5140399;27;20562;-43
2021/01/12 02:24:29;;;;;;;21.10;13.07;;;-1.50;93.50;;;;;;5139763;27;20278;-45
2021/01/12 02:26:55;;;;;;;18.47;11.80;;;-1.50;93.60;;;;;;5139211;27;20810;-45
2021/01/12 02:29:22;;;;;;;17.10;11.30;;;-1.50;93.80;;;;;;5140349;27;20417;-45
2021/01/12 02:31:48;;;;;;;22.63;12.90;;;-1.40;93.40;;;;;;5140365;27;20195;-44
2021/01/12 02:34:17;;;;;;;18.97;12.70;;;-1.40;93.30;;;;;;5139482;27;20428;-44
2021/01/12 02:36:44;;;;;;;17.10;11.90;;;-1.40;93.20;;;;;;5140473;27;20205;-44
2021/01/12 02:39:12;;;;;;;17.10;10.93;;;-1.40;93.20;;;;;;5139081;27;20467;-44
2021/01/12 02:41:37;;;;;;;19.30;12.63;;;-1.40;93.20;;;;;;5140334;27;20555;-44
2021/01/12 02:44:04;;;;;;;18.23;11.87;;;-1.40;93.20;;;;;;5140176;27;20441;-43
2021/01/12 02:46:30;;;;;;;18.60;11.93;;;-1.40;93.10;;;;;;5140314;27;20183;-45
2021/01/12 02:48:56;;;;;;;16.30;11.93;;;-1.30;93.20;;;;;;5140268;27;20439;-45
2021/01/12 02:51:22;;;;;;;16.40;11.83;;;-1.30;93.00;;;;;;5138812;27;20845;-44
2021/01/12 02:53:47;;;;;;;16.10;10.90;;;-1.30;92.90;;;;;;5140525;27;20183;-45
2021/01/12 02:56:13;;;;;;;15.40;10.80;;;-1.20;92.90;;;;;;5140589;27;20476;-44
2021/01/12 02:58:39;;;;;;;16.43;11.67;;;-1.30;93.10;;;;;;5139818;27;20214;-45
2021/01/12 03:01:05;;;;;;;18.93;12.03;;;-1.40;93.10;;;;;;5140099;27;20588;-44
2021/01/12 03:03:30;;;;;;;16.43;10.00;;;-1.40;93.40;;;;;;5140103;27;20195;-45
2021/01/12 03:05:56;;;;;;;15.47;10.13;;;-1.30;93.30;;;;;;5140536;27;20217;-45
2021/01/12 03:08:22;;;;;;;15.43;10.50;;;-1.30;93.30;;;;;;5140096;27;20182;-45
2021/01/12 03:10:48;;;;;;;13.40;10.40;;;-1.30;93.50;;;;;;5140261;27;20202;-45
2021/01/12 03:13:14;;;;;;;15.83;10.63;;;-1.30;93.40;;;;;;5140014;27;20417;-45
2021/01/12 03:15:41;;;;;;;14.33;9.70;;;-1.20;93.60;;;;;;5140205;27;20428;-45
2021/01/12 03:18:07;;;;;;;14.60;10.60;;;-1.20;93.60;;;;;;5139527;27;20612;-45
2021/01/12 03:20:33;;;;;;;14.37;9.73;;;-1.20;93.70;;;;;;5139702;27;20454;-45
2021/01/12 03:23:00;;;;;;;14.13;10.10;;;-1.10;93.70;;;;;;5139137;27;20404;-45
2021/01/12 03:25:25;;;;;;;14.37;9.70;;;-1.10;93.60;;;;;;5139039;27;20460;-45
2021/01/12 03:27:51;;;;;;;13.03;9.70;;;-1.10;93.70;;;;;;5139589;27;20451;-45
2021/01/12 03:30:18;;;;;;;14.70;9.77;;;-1.10;93.80;;;;;;5138683;27;20266;-44
2021/01/12 03:32:44;;;;;;;13.87;10.23;;;-1.10;93.90;;;;;;5138603;27;20564;-45
2021/01/12 03:35:10;;;;;;;13.87;9.13;;;-1.10;93.90;;;;;;5138304;27;20501;-45
2021/01/12 03:37:36;;;;;;;14.40;10.80;;;-1.10;94.00;;;;;;5138892;27;20260;-44
2021/01/12 03:40:04;;;;;;;15.10;9.97;;;-1.10;94.10;;;;;;5138917;27;20476;-45
2021/01/12 03:42:30;;;;;;;15.43;9.77;;;-1.10;94.40;;;;;;5138975;27;20420;-44
2021/01/12 03:44:56;;;;;;;15.27;10.90;;;-1.00;94.50;;;;;;5139396;27;20527;-45
2021/01/12 03:47:21;;;;;;;11.90;6.67;;;-1.00;94.70;;;;;;5138959;27;20262;-44
2021/01/12 03:49:47;;;;;;;12.80;8.00;;;-1.00;94.60;;;;;;5139286;27;20598;-44
2021/01/12 03:52:13;;;;;;;15.10;9.00;;;-1.00;94.60;;;;;;5139436;27;20179;-45
2021/01/12 03:54:39;;;;;;;14.10;9.20;;;-1.00;94.70;;;;;;5139241;27;20426;-45
2021/01/12 03:57:04;;;;;;;12.33;8.53;;;-0.90;94.80;;;;;;5138818;27;20573;-44
2021/01/12 03:59:30;;;;;;;13.87;9.60;;;-0.90;94.80;;;;;;5138516;27;20210;-44
2021/01/12 04:01:56;;;;;;;12.67;9.43;;;-0.90;94.90;;;;;;5138145;27;20435;-44
2021/01/12 04:04:21;;;;;;;12.27;8.80;;;-0.90;94.90;;;;;;5138292;27;20179;-45
2021/01/12 04:06:47;;;;;;;11.60;8.50;;;-0.90;94.80;;;;;;5138278;27;20186;-45
2021/01/12 04:09:13;;;;;;;15.17;10.60;;;-0.80;94.80;;;;;;5137229;27;20465;-44
2021/01/12 04:11:39;;;;;;;16.60;10.70;;;-0.80;94.80;;;;;;5137373;27;20210;-44
2021/01/12 04:14:08;;;;;;;17.13;10.33;;;-0.90;94.90;;;;;;5136265;27;20187;-44
2021/01/12 04:16:34;;;;;;;13.67;9.27;;;-0.80;95.10;;;;;;5137283;27;20307;-43
2021/01/12 04:19:00;;;;;;;13.53;9.90;;;-0.80;94.80;;;;;;5137034;27;20492;-44
2021/01/12 04:21:26;;;;;;;12.90;9.30;;;-0.80;94.80;;;;;;5137473;27;20191;-44
2021/01/12 04:23:52;;;;;;;13.63;9.17;;;-0.80;94.80;;;;;;5138116;27;20179;-44
2021/01/12 04:26:17;;;;;;;13.60;9.00;;;-0.80;94.70;;;;;;5137327;27;20823;-43
2021/01/12 04:28:44;;;;;;;17.17;10.30;;;-0.70;94.70;;;;;;5138006;27;20183;-44
2021/01/12 04:31:09;;;;;;;11.33;8.90;;;-0.70;94.60;;;;;;5138414;27;20437;-44
2021/01/12 04:33:35;;;;;;;13.93;9.37;;;-0.70;94.80;;;;;;5138712;27;20421;-44
2021/01/12 04:36:01;;;;;;;16.17;10.23;;;-0.70;94.40;;;;;;5138078;27;20259;-44
2021/01/12 04:38:27;;;;;;;11.67;8.50;;;-0.70;94.30;;;;;;5137816;27;20515;-44
2021/01/12 04:40:52;;;;;;;14.77;9.83;;;-0.80;94.30;;;;;;5137704;27;20187;-44
2021/01/12 04:43:18;;;;;;;13.33;9.37;;;-0.80;94.40;;;;;;5138016;28;20178;-45
2021/01/12 04:45:44;;;;;;;14.90;10.10;;;-0.80;94.50;;;;;;5137940;27;20187;-45
2021/01/12 04:48:09;;;;;;;17.53;11.00;;;-0.80;94.60;;;;;;5137604;28;20187;-45
2021/01/12 04:50:35;;;;;;;14.60;10.03;;;-0.90;94.50;;;;;;5137895;27;20224;-44
2021/01/12 04:53:01;;;;;;;14.77;10.70;;;-0.80;94.60;;;;;;5137405;28;20175;-45
2021/01/12 04:55:26;;;;;;;17.63;10.93;;;-0.80;94.70;;;;;;5137127;27;20186;-45
2021/01/12 04:57:52;;;;;;;17.23;11.07;;;-0.80;94.70;;;;;;5137926;28;20182;-45
2021/01/12 05:00:25;;;;;;;15.07;11.13;;;-0.70;94.60;;;;;;5136918;27;20488;-45
2021/01/12 05:03:02;;;;;;;14.90;10.60;;;-0.80;94.70;;;;;;5137778;27;20186;-45
2021/01/12 05:05:31;;;;;;;15.30;11.03;;;-0.70;94.90;;;;;;5136573;27;20428;-45
2021/01/12 05:08:01;;;;;;;14.90;10.37;;;-0.70;94.70;;;;;;5136919;28;20413;-45
2021/01/12 05:10:30;;;;;;;15.90;10.80;;;-0.60;94.80;;;;;;5137643;27;20429;-45
2021/01/12 05:12:57;;;;;;;16.30;11.80;;;-0.60;94.80;;;;;;5138156;27;20431;-45
2021/01/12 05:15:24;;;;;;;17.90;11.20;;;-0.70;95.10;;;;;;5139852;27;20695;-44
2021/01/12 05:17:50;;;;;;;17.10;10.60;;;-0.70;95.30;;;;;;5140340;27;20471;-45
2021/01/12 05:20:25;;;;;;;16.97;12.63;;;-0.60;95.40;;;;;;5139921;27;20815;-45
2021/01/12 05:23:08;;;;;;;18.83;11.20;;;-0.80;95.40;;;;;;5141792;27;20745;-45
2021/01/12 05:25:39;;;;;;;16.20;10.43;;;-0.80;95.80;;;;;;5141541;27;20424;-45
2021/01/12 05:28:07;;;;;;;14.40;9.73;;;-0.80;95.90;;;;;;5141370;27;20416;-44
2021/01/12 05:30:32;;;;;;;15.30;10.60;;;-0.90;96.00;;;;;;5142078;27;20432;-45
2021/01/12 05:32:59;;;;;;;14.37;9.20;;;-0.80;96.20;;;;;;5141871;27;20413;-45
2021/01/12 05:35:38;;;;;;;17.80;11.47;;;-0.80;96.40;;;;;;5142155;27;20553;-45
2021/01/12 05:38:09;;;;;;;20.13;10.90;;;-0.80;96.50;;;;;;5141209;27;20416;-45
2021/01/12 05:40:41;;;;;;;16.60;10.50;;;-0.80;96.50;;;;;;5140960;27;20889;-45
2021/01/12 05:43:13;;;;;;;19.40;11.83;;;-0.80;96.50;;;;;;5141396;27;20447;-45
2021/01/12 05:45:41;;;;;;;14.60;11.10;;;-0.70;96.70;;;;;;5141837;27;20452;-45
2021/01/12 05:48:11;;;;;;;15.30;10.10;;;-0.70;96.70;;;;;;5141017;27;20894;-45
2021/01/12 05:50:38;;;;;;;16.60;9.37;;;-0.70;96.90;;;;;;5141724;27;20429;-45
2021/01/12 05:53:06;;;;;;;16.57;10.03;;;-0.60;96.90;;;;;;5141698;27;20444;-44
2021/01/12 05:55:38;;;;;;;14.17;9.70;;;-0.60;97.00;;;;;;5141556;27;20432;-45
2021/01/12 05:58:18;;;;;;;12.57;8.83;;;-0.50;97.10;;;;;;5140013;27;20427;-45
2021/01/12 06:00:46;;;;;;;12.03;9.10;;;-0.40;97.20;;;;;;5140724;27;20417;-45
2021/01/12 06:03:16;;;;;;;13.30;9.57;;;-0.40;97.20;;;;;;5140993;27;20397;-43
2021/01/12 06:05:45;;;;;;;12.13;7.37;;;-0.50;97.30;;;;;;5141034;27;20425;-45
2021/01/12 06:08:13;;;;;;;14.53;9.83;;;-0.50;97.60;;;;;;5140668;27;20972;-44
2021/01/12 06:10:43;;;;;;;14.80;10.80;;;-0.50;97.50;;;;;;5140368;27;20432;-45
2021/01/12 06:13:18;;;;;;;13.37;9.50;;;-0.50;97.60;;;;;;5141337;27;20409;-45
2021/01/12 06:15:47;;;;;;;15.67;10.50;;;-0.50;97.50;;;;;;5140762;27;20429;-45
2021/01/12 06:18:15;;;;;;;13.23;8.60;;;-0.50;97.60;;;;;;5140111;27;20424;-44
2021/01/12 06:21:03;;;;;;;14.03;9.73;;;-0.50;97.60;;;;;;5138133;27;20998;-45
2021/01/12 06:23:44;;;;;;;16.87;8.90;;;-0.50;97.70;;;;;;5138237;27;20419;-44
2021/01/12 06:26:13;;;;;;;13.87;9.13;;;-0.50;97.70;;;;;;5137562;27;20841;-45
2021/01/12 06:28:43;;;;;;;13.60;9.37;;;-0.40;97.70;;;;;;5138488;27;20431;-45
2021/01/12 06:31:09;;;;;;;11.97;8.37;;;-0.40;97.70;;;;;;5138699;27;20424;-45
2021/01/12 06:33:35;;;;;;;14.17;10.23;;;-0.40;97.70;;;;;;5139444;27;20432;-45
2021/01/12 06:36:02;;;;;;;12.80;8.10;;;-0.40;97.60;;;;;;5139401;27;20429;-45
2021/01/12 06:38:28;;;;;;;13.30;9.27;;;-0.30;97.60;;;;;;5140078;27;21353;-45
2021/01/12 06:40:57;;;;;;;15.17;9.97;;;-0.30;97.60;;;;;;5139923;27;20756;-44
2021/01/12 06:43:28;;;;;;;15.33;8.97;;;-0.20;97.70;;;;;;5139824;27;20420;-45
2021/01/12 06:45:55;;;;;;;12.23;7.90;;;-0.30;97.60;;;;;;5139943;27;20459;-46
2021/01/12 06:48:21;;;;;;;17.17;9.07;;;-0.20;97.80;;;;;;5138497;27;20489;-44
2021/01/12 06:50:47;;;;;;;13.47;8.97;;;-0.20;97.70;;;;;;5138519;27;20915;-45
2021/01/12 06:53:14;;;;;;;12.00;8.37;;;-0.20;97.70;;;;;;5139699;27;20451;-44
2021/01/12 06:55:41;;;;;;;12.23;9.13;;;-0.20;97.70;;;;;;5121195;27;20444;-44
2021/01/12 06:58:10;;;;;;;12.23;8.30;;;-0.10;97.80;;;;;;5138961;27;20427;-45
2021/01/12 07:00:36;;;;;;;12.00;8.90;;;-0.10;97.70;;;;;;5138641;27;20459;-44
2021/01/12 07:03:03;;;;;;;14.90;9.53;;;-0.10;97.70;;;;;;5125518;27;20764;-45
2021/01/12 07:05:37;;;;;;;12.13;8.50;;;0.00;97.80;;;;;;5138094;27;20436;-45
2021/01/12 07:08:08;;;;;;;15.57;8.70;;;0.00;97.80;;;;;;5134482;27;20413;-45
2021/01/12 07:10:40;;;;;;;12.67;8.77;;;0.00;97.80;;;;;;5120909;27;20968;-45
2021/01/12 07:13:07;;;;;;;12.37;7.60;;;0.00;98.00;;;;;;5139572;27;20439;-45
2021/01/12 07:15:45;;;;;;;11.20;8.00;;;0.10;98.20;;;;;;5139508;27;20437;-45
2021/01/12 07:18:14;;;;;;;12.10;8.60;;;0.10;98.20;;;;;;5140248;27;20420;-44
2021/01/12 07:20:40;;;;;;;11.00;8.90;;;0.10;98.20;;;;;;5140107;27;20748;-45
2021/01/12 07:23:08;;;;;;;12.97;9.07;;;0.10;98.40;;;;;;5131800;27;20421;-44
2021/01/12 07:25:38;;;;;;;14.10;8.87;;;0.00;98.50;;;;;;5118942;27;20439;-45
2021/01/12 07:28:17;;;;;;;12.40;9.40;;;0.10;98.60;;;;;;5130463;27;20479;-45
2021/01/12 07:30:48;;;;;;;11.83;7.73;;;0.20;98.60;;;;;;5133961;27;20425;-45
2021/01/12 07:33:24;;;;;;;14.03;8.57;;;0.20;98.70;;;;;;5129583;27;20424;-45
2021/01/12 07:35:52;;;;;;;13.70;10.97;;;0.10;98.80;;;;;;5117855;28;20426;-45
2021/01/12 07:38:22;;;;;;;11.30;8.50;;;0.10;99.00;;;;;;5117255;28;20512;-45
2021/01/12 07:40:48;;;;;;;12.20;7.17;;;0.10;99.00;;;;;;5117364;28;20461;-45
2021/01/12 07:43:15;;;;;;;12.07;8.23;;;0.20;99.20;;;;;;5122462;27;20443;-45
2021/01/12 07:45:41;;;;;;;14.00;9.90;;;0.10;99.30;;;;;;5118046;28;20425;-45
2021/01/12 07:48:07;;;;;;;14.13;9.13;;;0.20;99.40;;;;;;5128429;27;20861;-45
2021/01/12 07:50:33;;;;;;;13.37;8.70;;;0.20;99.40;;;;;;5122322;27;20826;-45
2021/01/12 07:53:04;;;;;;;15.30;10.43;;;0.20;99.40;;;;;;5138283;27;20472;-43
2021/01/12 07:55:29;;;;;;;12.63;8.30;;;0.20;99.40;;;;;;5139108;27;20179;-45
2021/01/12 07:57:57;;;;;;;13.30;9.10;;;0.20;99.40;;;;;;5139372;27;20512;-45
2021/01/12 08:00:24;;;;;;;10.93;7.27;;;0.30;99.50;;;;;;5117383;28;20655;-45
2021/01/12 08:02:54;;;;;;;11.70;8.67;;;0.30;99.50;;;;;;5116753;28;20421;-46
2021/01/12 08:05:25;;;;;;;12.27;8.60;;;0.30;99.50;;;;;;5136902;27;20432;-45
2021/01/12 08:08:00;;;;;;;16.23;10.90;;;0.30;99.60;;;;;;5137037;27;20833;-45
2021/01/12 08:10:26;;;;;;;12.77;8.67;;;0.40;99.80;;;;;;5116781;28;20462;-46
2021/01/12 08:12:52;;;;;;;10.93;6.93;;;0.40;99.90;;;;;;5126025;27;20465;-45
2021/01/12 08:15:18;;;;;;;11.90;9.30;;;0.50;99.90;;;;;;5116048;27;20195;-44
2021/01/12 08:17:50;;;;;;;13.73;9.40;;;0.50;99.90;;;;;;5124560;27;20464;-44
2021/01/12 08:20:19;;;;;;;13.37;8.50;;;0.40;99.90;;;;;;5124719;27;20473;-44
2021/01/12 08:22:51;;;;;;;13.97;8.43;;;0.50;99.90;;;;;;5122409;27;20572;-44
2021/01/12 08:25:16;;;;;;;14.20;9.50;;;0.50;99.90;;;;;;5138689;27;20432;-43
2021/01/12 08:27:47;;;;;;;12.80;9.00;;;0.40;99.90;;;;;;5138082;27;20409;-44
2021/01/12 08:30:13;;;;;;;13.40;9.07;;;0.50;99.90;;;;;;5139174;27;20201;-45
2021/01/12 08:32:44;;;;;;;11.17;7.83;;;0.50;99.90;;;;;;5121888;27;20418;-44
2021/01/12 08:35:13;;;;;;;14.53;8.80;;;0.50;99.90;;;;;;5135979;27;20516;-45
2021/01/12 08:37:40;;;;;;;15.77;9.97;;;0.50;99.90;;;;;;5137703;27;20497;-45
2021/01/12 08:40:08;;;;;;;12.43;7.87;;;0.50;99.90;;;;;;5119894;28;20907;-45
2021/01/12 08:42:38;;;;;;;12.03;9.20;;;0.60;99.90;;;;;;5118117;28;20416;-45
2021/01/12 08:45:14;;;;;;;11.10;8.60;;;0.60;99.90;;;;;;5134362;28;20456;-45
2021/01/12 08:47:40;;;;;;;14.00;8.70;;;0.60;99.90;;;;;;5138243;27;20745;-45
2021/01/12 08:50:08;;;;;;;11.30;6.43;;;0.60;99.90;;;;;;5140393;27;20460;-45
2021/01/12 08:52:38;;;;;;;9.20;6.60;;;0.70;99.90;;;;;;5141823;27;20519;-45
2021/01/12 08:55:14;;;;;;;10.53;6.73;;;0.70;99.90;;;;;;5139813;27;20429;-44
2021/01/12 08:57:40;;;;;;;5.53;3.90;;;0.90;99.90;;;;;;5141710;27;20420;-44
2021/01/12 09:00:13;;;;;;;6.93;4.47;;;1.00;99.90;;;;;;5139911;27;20469;-45
2021/01/12 09:02:39;;;;;;;6.57;5.07;;;1.10;99.90;;;;;;5131548;27;20176;-44
2021/01/12 09:05:07;;;;;;;3.40;2.83;;;1.20;99.90;;;;;;5138677;27;20447;-45
2021/01/12 09:07:33;;;;;;;4.30;3.13;;;1.30;99.90;;;;;;5142474;27;20509;-44
2021/01/12 09:09:59;;;;;;;6.20;2.57;;;1.50;99.90;;;;;;5124561;27;20449;-44
2021/01/12 09:12:25;;;;;;;2.97;2.30;;;1.50;99.90;;;;;;5122158;27;20861;-44
2021/01/12 09:14:51;;;;;;;3.73;2.80;;;1.50;99.90;;;;;;5135672;27;21141;-43
2021/01/12 09:17:20;;;;;;;2.30;2.10;;;1.50;99.90;;;;;;5142106;27;20490;-44
2021/01/12 09:19:53;;;;;;;3.63;2.63;;;1.60;99.90;;;;;;5132990;27;20481;-45
2021/01/12 09:22:20;;;;;;;4.03;3.00;;;1.60;99.90;;;;;;5121111;28;20428;-44
2021/01/12 09:24:50;;;;;;;3.20;2.37;;;1.60;99.90;;;;;;5120648;28;20433;-44
2021/01/12 09:27:24;;;;;;;4.20;2.67;;;1.70;99.90;;;;;;5140052;27;20751;-44
2021/01/12 09:29:52;;;;;;;3.10;2.57;;;1.70;99.90;;;;;;5125465;27;20434;-44
2021/01/12 09:32:29;;;;;;;3.20;2.30;;;1.70;99.90;;;;;;5121695;28;20417;-44
2021/01/12 09:34:56;;;;;;;3.53;2.03;;;1.70;99.90;;;;;;5121461;28;20441;-44
2021/01/12 09:37:22;;;;;;;3.40;2.27;;;1.80;99.90;;;;;;5120556;28;20420;-44
2021/01/12 09:39:55;;;;;;;4.00;2.83;;;1.70;99.90;;;;;;5120526;28;20465;-45
2021/01/12 09:42:27;;;;;;;3.57;2.73;;;1.80;99.90;;;;;;5120886;28;20413;-45
2021/01/12 09:44:54;;;;;;;2.80;2.37;;;1.70;99.90;;;;;;5136201;27;20500;-44
2021/01/12 09:47:21;;;;;;;3.47;2.93;;;1.70;99.90;;;;;;5139982;27;20503;-45
2021/01/12 09:49:48;;;;;;;5.17;3.40;;;1.60;99.90;;;;;;5141714;27;20432;-45
2021/01/12 09:52:16;;;;;;;2.77;2.10;;;1.70;99.90;;;;;;5141803;27;20432;-44
2021/01/12 09:54:45;;;;;;;3.50;2.47;;;1.70;99.90;;;;;;5140550;27;20447;-44
2021/01/12 09:57:12;;;;;;;4.60;3.13;;;1.70;99.90;;;;;;5141345;27;20491;-44
2021/01/12 09:59:38;;;;;;;3.97;3.10;;;1.70;99.90;;;;;;5140645;27;20483;-45
2021/01/12 10:02:04;;;;;;;4.10;2.77;;;1.70;99.90;;;;;;5140135;27;20409;-45
2021/01/12 10:04:29;;;;;;;3.13;2.53;;;1.70;99.90;;;;;;5127344;27;20184;-45
2021/01/12 10:06:59;;;;;;;4.60;3.17;;;1.60;99.90;;;;;;5120689;28;20245;-45
2021/01/12 10:09:25;;;;;;;4.10;2.80;;;1.60;99.90;;;;;;5120823;28;20190;-45
2021/01/12 10:11:52;;;;;;;3.93;2.83;;;1.60;99.90;;;;;;5121364;28;20493;-45
2021/01/12 10:14:18;;;;;;;3.90;2.80;;;1.50;99.90;;;;;;5120693;28;20426;-45
2021/01/12 10:16:45;;;;;;;3.87;3.00;;;1.60;99.90;;;;;;5120789;28;20469;-45
2021/01/12 10:19:11;;;;;;;3.80;2.07;;;1.60;99.90;;;;;;5102618;28;20523;-43
2021/01/12 10:21:36;;;;;;;2.90;2.50;;;1.60;99.90;;;;;;5120654;28;20890;-44
2021/01/12 10:24:02;;;;;;;4.93;3.10;;;1.50;99.90;;;;;;5120397;28;20834;-45
2021/01/12 10:26:28;;;;;;;3.10;2.10;;;1.50;99.90;;;;;;5120087;28;20191;-44
2021/01/12 10:28:54;;;;;;;2.00;1.60;;;1.50;99.90;;;;;;5120694;28;20512;-45
2021/01/12 10:31:20;;;;;;;1.80;1.70;;;1.40;99.90;;;;;;5120835;28;20536;-44
2021/01/12 10:33:50;;;;;;;2.70;2.17;;;1.50;99.90;;;;;;5120200;28;20191;-44
2021/01/12 10:36:18;;;;;;;3.33;2.40;;;1.50;99.90;;;;;;5120489;28;20430;-44
2021/01/12 10:38:44;;;;;;;2.60;2.17;;;1.40;99.90;;;;;;5119589;28;20457;-44
2021/01/12 10:41:09;;;;;;;1.80;1.50;;;1.40;99.90;;;;;;5120832;27;20432;-44
2021/01/12 10:43:36;;;;;;;2.33;1.30;;;1.50;99.90;;;;;;5141189;27;20486;-44
2021/01/12 10:46:01;;;;;;;2.23;1.97;;;1.50;99.90;;;;;;5140567;27;20273;-44
2021/01/12 10:48:28;;;;;;;2.37;1.40;;;1.50;99.90;;;;;;5136881;27;20750;-44
2021/01/12 10:50:54;;;;;;;1.37;1.10;;;1.60;99.90;;;;;;5117608;28;20191;-45
2021/01/12 10:53:20;;;;;;;1.50;1.10;;;1.50;99.90;;;;;;5119053;28;20482;-45
2021/01/12 10:55:46;;;;;;;1.43;1.10;;;1.50;99.90;;;;;;5119246;28;20425;-45
2021/01/12 10:58:12;;;;;;;1.00;0.90;;;1.50;99.90;;;;;;5119198;28;20180;-44
2021/01/12 11:00:41;;;;;;;1.60;1.20;;;1.50;99.90;;;;;;5124978;27;20478;-45
2021/01/12 11:03:07;;;;;;;1.30;1.00;;;1.50;99.90;;;;;;5139107;27;20440;-44
2021/01/12 11:05:34;;;;;;;2.40;1.13;;;1.50;99.90;;;;;;5135627;27;20430;-44
2021/01/12 11:08:02;;;;;;;1.40;1.10;;;1.50;99.90;;;;;;5117852;28;20417;-44
2021/01/12 11:10:29;;;;;;;1.90;1.00;;;1.50;99.90;;;;;;5134486;27;20424;-44
2021/01/12 11:13:00;;;;;;;2.07;1.27;;;1.60;99.90;;;;;;5138070;27;20435;-44
2021/01/12 11:15:26;;;;;;;1.20;1.03;;;1.50;99.90;;;;;;5117817;27;20545;-44
2021/01/12 11:17:52;;;;;;;2.20;1.20;;;1.50;99.90;;;;;;5136529;27;20468;-44
2021/01/12 11:20:18;;;;;;;1.50;1.30;;;1.50;99.90;;;;;;5133682;27;20519;-44
2021/01/12 11:22:50;;;;;;;2.90;1.83;;;1.50;99.90;;;;;;5140494;27;20776;-44
2021/01/12 11:25:16;;;;;;;1.83;1.50;;;1.50;99.90;;;;;;5139956;27;20459;-44
2021/01/12 11:27:42;;;;;;;2.37;1.50;;;1.40;99.90;;;;;;5139608;27;20682;-44
2021/01/12 11:30:08;;;;;;;2.57;1.67;;;1.50;99.90;;;;;;5139196;27;20432;-44
2021/01/12 11:32:37;;;;;;;2.50;1.90;;;1.50;99.90;;;;;;5139715;27;20702;-42
2021/01/12 11:35:04;;;;;;;2.23;1.53;;;1.50;99.90;;;;;;5139556;27;20436;-44
2021/01/12 11:37:31;;;;;;;1.33;1.07;;;1.50;99.90;;;;;;5139138;27;20413;-44
2021/01/12 11:39:58;;;;;;;2.37;1.53;;;1.50;99.90;;;;;;5123318;27;20473;-44
2021/01/12 11:42:24;;;;;;;2.40;0.93;;;1.50;99.90;;;;;;5123098;27;20425;-44
2021/01/12 11:44:50;;;;;;;2.27;1.43;;;1.50;99.90;;;;;;5125088;27;20498;-42
2021/01/12 11:47:15;;;;;;;2.03;1.20;;;1.40;99.90;;;;;;5119873;28;20201;-44
2021/01/12 11:49:41;;;;;;;3.00;1.73;;;1.50;99.90;;;;;;5119165;28;20194;-43
2021/01/12 11:52:09;;;;;;;1.90;1.50;;;1.60;99.90;;;;;;5119007;28;20413;-44
2021/01/12 11:54:35;;;;;;;1.97;1.30;;;1.50;99.90;;;;;;5119638;28;20471;-43
2021/01/12 11:57:03;;;;;;;1.97;1.30;;;1.60;99.90;;;;;;5118183;28;20410;-44
2021/01/12 11:59:34;;;;;;;8.83;4.33;;;1.60;99.90;;;;;;5118412;28;20465;-44
2021/01/12 12:02:01;;;;;;;1.97;1.77;;;1.60;99.90;;;;;;5119273;28;20425;-44
2021/01/12 12:04:27;;;;;;;1.23;1.13;;;1.60;99.90;;;;;;5119185;28;20420;-44
2021/01/12 12:06:53;;;;;;;1.80;1.30;;;1.50;99.90;;;;;;5118943;28;20517;-43
2021/01/12 12:09:20;;;;;;;2.60;1.80;;;1.50;99.90;;;;;;5119373;28;20413;-43
2021/01/12 12:11:46;;;;;;;1.80;1.10;;;1.60;99.90;;;;;;5118741;28;20432;-44
2021/01/12 12:14:13;;;;;;;1.13;0.83;;;1.60;99.90;;;;;;5119466;28;20413;-44
2021/01/12 12:16:42;;;;;;;1.33;1.00;;;1.60;99.90;;;;;;5118304;28;20533;-44
2021/01/12 12:19:08;;;;;;;1.27;0.97;;;1.60;99.90;;;;;;5117307;28;20469;-44
2021/01/12 12:21:46;;;;;;;1.07;0.73;;;1.60;99.90;;;;;;5119251;28;20517;-44
2021/01/12 12:24:14;;;;;;;1.50;0.90;;;1.50;99.90;;;;;;5117715;28;20417;-44
2021/01/12 12:26:40;;;;;;;0.97;0.60;;;1.60;99.90;;;;;;5118455;28;20426;-45
2021/01/12 12:29:05;;;;;;;1.73;1.00;;;1.60;99.90;;;;;;5118650;28;20424;-44
2021/01/12 12:31:31;;;;;;;1.70;1.27;;;1.70;99.90;;;;;;5118502;28;20573;-44
2021/01/12 12:33:57;;;;;;;1.43;0.80;;;1.60;99.90;;;;;;5118599;28;20342;-42
2021/01/12 12:36:24;;;;;;;1.50;0.83;;;1.70;99.90;;;;;;5117565;28;20242;-44
2021/01/12 12:38:50;;;;;;;1.30;0.80;;;1.70;99.90;;;;;;5116905;28;20589;-44
2021/01/12 12:41:17;;;;;;;1.20;0.93;;;1.70;99.90;;;;;;5117680;28;20436;-49
2021/01/12 12:43:44;;;;;;;1.20;0.90;;;1.80;99.90;;;;;;5118660;28;20164;-45